sensor_id;sensor_type;location;lat;lon;timestamp;P1;durP1;ratioP1;P2;durP2;ratioP2
34832;SDS011;55941;50.800;4.342;2023-06-22T00:00:57;6.95;;;1.83;;
34832;SDS011;55941;50.800;4.342;2023-06-22T00:03:23;6.63;;;2.20;;
34832;SDS011;55941;50.800;4.342;2023-06-22T00:05:50;3.15;;;1.90;;
34832;SDS011;55941;50.800;4.342;2023-06-22T00:08:17;2.92;;;1.60;;
34832;SDS011;55941;50.800;4.342;2023-06-22T00:10:44;4.82;;;2.03;;
34832;SDS011;55941;50.800;4.342;2023-06-22T00:13:11;3.05;;;2.28;;
34832;SDS011;55941;50.800;4.342;2023-06-22T00:15:38;2.70;;;1.90;;
34832;SDS011;55941;50.800;4.342;2023-06-22T00:18:09;8.27;;;1.90;;
34832;SDS011;55941;50.800;4.342;2023-06-22T00:20:35;3.92;;;1.80;;
34832;SDS011;55941;50.800;4.342;2023-06-22T00:23:02;4.10;;;2.08;;
34832;SDS011;55941;50.800;4.342;2023-06-22T00:25:35;3.70;;;1.20;;
34832;SDS011;55941;50.800;4.342;2023-06-22T00:28:02;4.55;;;2.03;;
34832;SDS011;55941;50.800;4.342;2023-06-22T00:30:28;2.95;;;1.67;;
34832;SDS011;55941;50.800;4.342;2023-06-22T00:32:55;3.92;;;1.60;;
34832;SDS011;55941;50.800;4.342;2023-06-22T00:35:21;6.78;;;1.67;;
34832;SDS011;55941;50.800;4.342;2023-06-22T00:37:46;4.63;;;1.88;;
34832;SDS011;55941;50.800;4.342;2023-06-22T00:40:12;2.88;;;1.85;;
34832;SDS011;55941;50.800;4.342;2023-06-22T00:42:39;3.08;;;1.75;;
34832;SDS011;55941;50.800;4.342;2023-06-22T00:45:06;4.03;;;1.83;;
34832;SDS011;55941;50.800;4.342;2023-06-22T00:47:33;3.90;;;1.63;;
34832;SDS011;55941;50.800;4.342;2023-06-22T00:49:59;2.55;;;1.70;;
34832;SDS011;55941;50.800;4.342;2023-06-22T00:52:25;3.55;;;1.98;;
34832;SDS011;55941;50.800;4.342;2023-06-22T00:54:54;4.85;;;2.25;;
34832;SDS011;55941;50.800;4.342;2023-06-22T00:57:21;3.55;;;1.92;;
34832;SDS011;55941;50.800;4.342;2023-06-22T00:59:50;5.50;;;1.75;;
34832;SDS011;55941;50.800;4.342;2023-06-22T01:02:16;5.80;;;2.40;;
34832;SDS011;55941;50.800;4.342;2023-06-22T01:04:42;3.70;;;2.40;;
34832;SDS011;55941;50.800;4.342;2023-06-22T01:12:58;3.55;;;2.10;;
34832;SDS011;55941;50.800;4.342;2023-06-22T01:16:02;3.80;;;2.10;;
34832;SDS011;55941;50.800;4.342;2023-06-22T01:18:41;4.13;;;2.60;;
34832;SDS011;55941;50.800;4.342;2023-06-22T01:21:10;7.22;;;2.58;;
34832;SDS011;55941;50.800;4.342;2023-06-22T01:23:47;3.20;;;2.15;;
34832;SDS011;55941;50.800;4.342;2023-06-22T01:26:37;6.13;;;2.70;;
34832;SDS011;55941;50.800;4.342;2023-06-22T01:29:19;6.00;;;2.33;;
34832;SDS011;55941;50.800;4.342;2023-06-22T01:31:47;6.18;;;2.90;;
34832;SDS011;55941;50.800;4.342;2023-06-22T01:34:15;4.53;;;2.38;;
34832;SDS011;55941;50.800;4.342;2023-06-22T01:36:42;4.45;;;2.67;;
34832;SDS011;55941;50.800;4.342;2023-06-22T01:39:09;3.40;;;2.33;;
34832;SDS011;55941;50.800;4.342;2023-06-22T01:41:36;6.00;;;2.55;;
34832;SDS011;55941;50.800;4.342;2023-06-22T01:44:06;5.63;;;2.50;;
34832;SDS011;55941;50.800;4.342;2023-06-22T01:46:34;9.50;;;2.65;;
34832;SDS011;55941;50.800;4.342;2023-06-22T01:49:02;5.40;;;2.63;;
34832;SDS011;55941;50.800;4.342;2023-06-22T01:51:28;5.45;;;2.83;;
34832;SDS011;55941;50.800;4.342;2023-06-22T01:53:54;4.35;;;2.70;;
34832;SDS011;55941;50.800;4.342;2023-06-22T01:56:19;4.65;;;2.90;;
34832;SDS011;55941;50.800;4.342;2023-06-22T01:58:50;5.75;;;3.03;;
34832;SDS011;55941;50.800;4.342;2023-06-22T02:01:24;5.25;;;2.78;;
34832;SDS011;55941;50.800;4.342;2023-06-22T02:04:06;4.85;;;2.95;;
34832;SDS011;55941;50.800;4.342;2023-06-22T02:06:37;4.90;;;3.10;;
34832;SDS011;55941;50.800;4.342;2023-06-22T02:09:08;4.22;;;3.20;;
34832;SDS011;55941;50.800;4.342;2023-06-22T02:11:38;4.35;;;3.40;;
34832;SDS011;55941;50.800;4.342;2023-06-22T02:14:07;6.82;;;3.33;;
34832;SDS011;55941;50.800;4.342;2023-06-22T02:16:33;6.15;;;3.47;;
34832;SDS011;55941;50.800;4.342;2023-06-22T02:19:00;5.65;;;3.03;;
34832;SDS011;55941;50.800;4.342;2023-06-22T02:21:31;8.82;;;3.85;;
34832;SDS011;55941;50.800;4.342;2023-06-22T02:23:58;5.10;;;3.40;;
34832;SDS011;55941;50.800;4.342;2023-06-22T02:26:24;7.18;;;3.13;;
34832;SDS011;55941;50.800;4.342;2023-06-22T02:28:50;6.53;;;3.45;;
34832;SDS011;55941;50.800;4.342;2023-06-22T02:31:17;6.97;;;3.22;;
34832;SDS011;55941;50.800;4.342;2023-06-22T02:33:43;6.47;;;3.38;;
34832;SDS011;55941;50.800;4.342;2023-06-22T02:36:09;6.95;;;3.15;;
34832;SDS011;55941;50.800;4.342;2023-06-22T02:38:38;5.25;;;3.25;;
34832;SDS011;55941;50.800;4.342;2023-06-22T02:41:05;5.90;;;3.03;;
34832;SDS011;55941;50.800;4.342;2023-06-22T02:43:31;9.05;;;3.00;;
34832;SDS011;55941;50.800;4.342;2023-06-22T02:45:57;5.90;;;3.00;;
34832;SDS011;55941;50.800;4.342;2023-06-22T02:48:23;4.90;;;3.15;;
34832;SDS011;55941;50.800;4.342;2023-06-22T02:50:48;4.88;;;3.10;;
34832;SDS011;55941;50.800;4.342;2023-06-22T02:53:14;5.60;;;3.13;;
34832;SDS011;55941;50.800;4.342;2023-06-22T02:55:40;4.45;;;2.95;;
34832;SDS011;55941;50.800;4.342;2023-06-22T02:58:05;5.03;;;2.80;;
34832;SDS011;55941;50.800;4.342;2023-06-22T03:00:31;8.80;;;3.22;;
34832;SDS011;55941;50.800;4.342;2023-06-22T03:02:57;6.22;;;3.45;;
34832;SDS011;55941;50.800;4.342;2023-06-22T03:05:23;6.32;;;3.63;;
34832;SDS011;55941;50.800;4.342;2023-06-22T03:07:48;7.90;;;4.30;;
34832;SDS011;55941;50.800;4.342;2023-06-22T03:10:14;8.07;;;4.03;;
34832;SDS011;55941;50.800;4.342;2023-06-22T03:12:41;7.05;;;4.03;;
34832;SDS011;55941;50.800;4.342;2023-06-22T03:15:08;7.00;;;3.97;;
34832;SDS011;55941;50.800;4.342;2023-06-22T03:17:36;10.80;;;3.85;;
34832;SDS011;55941;50.800;4.342;2023-06-22T03:20:03;7.88;;;3.95;;
34832;SDS011;55941;50.800;4.342;2023-06-22T03:22:37;7.53;;;3.90;;
34832;SDS011;55941;50.800;4.342;2023-06-22T03:25:09;6.65;;;3.95;;
34832;SDS011;55941;50.800;4.342;2023-06-22T03:27:41;6.32;;;3.95;;
34832;SDS011;55941;50.800;4.342;2023-06-22T03:30:07;7.35;;;4.50;;
34832;SDS011;55941;50.800;4.342;2023-06-22T03:32:34;7.13;;;4.47;;
34832;SDS011;55941;50.800;4.342;2023-06-22T03:35:00;6.78;;;3.97;;
34832;SDS011;55941;50.800;4.342;2023-06-22T03:37:27;8.18;;;4.15;;
34832;SDS011;55941;50.800;4.342;2023-06-22T03:39:54;10.15;;;4.35;;
34832;SDS011;55941;50.800;4.342;2023-06-22T03:42:19;6.45;;;3.90;;
34832;SDS011;55941;50.800;4.342;2023-06-22T03:44:45;8.98;;;4.38;;
34832;SDS011;55941;50.800;4.342;2023-06-22T03:47:11;7.25;;;4.22;;
34832;SDS011;55941;50.800;4.342;2023-06-22T03:49:37;6.90;;;3.72;;
34832;SDS011;55941;50.800;4.342;2023-06-22T03:52:03;6.82;;;4.28;;
34832;SDS011;55941;50.800;4.342;2023-06-22T03:54:29;9.15;;;4.20;;
34832;SDS011;55941;50.800;4.342;2023-06-22T03:56:58;10.50;;;4.82;;
34832;SDS011;55941;50.800;4.342;2023-06-22T03:59:24;7.95;;;4.38;;
34832;SDS011;55941;50.800;4.342;2023-06-22T04:01:50;10.77;;;4.90;;
34832;SDS011;55941;50.800;4.342;2023-06-22T04:04:17;7.05;;;4.53;;
34832;SDS011;55941;50.800;4.342;2023-06-22T04:06:43;9.23;;;4.80;;
34832;SDS011;55941;50.800;4.342;2023-06-22T04:09:09;11.25;;;4.03;;
34832;SDS011;55941;50.800;4.342;2023-06-22T04:11:34;9.63;;;4.68;;
34832;SDS011;55941;50.800;4.342;2023-06-22T04:14:00;10.23;;;4.68;;
34832;SDS011;55941;50.800;4.342;2023-06-22T04:16:26;5.75;;;3.80;;
34832;SDS011;55941;50.800;4.342;2023-06-22T04:18:51;6.07;;;3.30;;
34832;SDS011;55941;50.800;4.342;2023-06-22T04:21:18;7.00;;;4.10;;
34832;SDS011;55941;50.800;4.342;2023-06-22T04:23:47;8.07;;;4.20;;
34832;SDS011;55941;50.800;4.342;2023-06-22T04:26:13;7.82;;;4.55;;
34832;SDS011;55941;50.800;4.342;2023-06-22T04:28:39;11.80;;;3.88;;
34832;SDS011;55941;50.800;4.342;2023-06-22T04:31:05;7.65;;;4.32;;
34832;SDS011;55941;50.800;4.342;2023-06-22T04:33:31;6.93;;;3.97;;
34832;SDS011;55941;50.800;4.342;2023-06-22T04:35:58;8.35;;;4.13;;
34832;SDS011;55941;50.800;4.342;2023-06-22T04:38:27;13.50;;;4.80;;
34832;SDS011;55941;50.800;4.342;2023-06-22T04:40:52;9.23;;;4.38;;
34832;SDS011;55941;50.800;4.342;2023-06-22T04:43:18;9.20;;;4.57;;
34832;SDS011;55941;50.800;4.342;2023-06-22T04:45:44;14.75;;;5.13;;
34832;SDS011;55941;50.800;4.342;2023-06-22T04:48:10;17.15;;;5.50;;
34832;SDS011;55941;50.800;4.342;2023-06-22T04:50:42;7.05;;;4.63;;
34832;SDS011;55941;50.800;4.342;2023-06-22T04:53:07;13.50;;;5.53;;
34832;SDS011;55941;50.800;4.342;2023-06-22T04:55:34;12.18;;;5.60;;
34832;SDS011;55941;50.800;4.342;2023-06-22T04:58:02;11.90;;;5.20;;
34832;SDS011;55941;50.800;4.342;2023-06-22T05:00:29;12.82;;;5.18;;
34832;SDS011;55941;50.800;4.342;2023-06-22T05:02:57;11.90;;;5.53;;
34832;SDS011;55941;50.800;4.342;2023-06-22T05:05:26;15.88;;;5.95;;
34832;SDS011;55941;50.800;4.342;2023-06-22T05:07:51;10.07;;;6.43;;
34832;SDS011;55941;50.800;4.342;2023-06-22T05:10:24;21.25;;;6.30;;
34832;SDS011;55941;50.800;4.342;2023-06-22T05:12:50;13.20;;;7.13;;
34832;SDS011;55941;50.800;4.342;2023-06-22T05:15:16;20.48;;;9.40;;
34832;SDS011;55941;50.800;4.342;2023-06-22T05:17:44;12.70;;;6.75;;
34832;SDS011;55941;50.800;4.342;2023-06-22T05:20:10;15.13;;;8.38;;
34832;SDS011;55941;50.800;4.342;2023-06-22T05:22:38;18.52;;;7.90;;
34832;SDS011;55941;50.800;4.342;2023-06-22T05:25:08;13.38;;;8.52;;
34832;SDS011;55941;50.800;4.342;2023-06-22T05:27:35;16.50;;;9.57;;
34832;SDS011;55941;50.800;4.342;2023-06-22T05:30:04;15.70;;;10.73;;
34832;SDS011;55941;50.800;4.342;2023-06-22T05:32:31;18.58;;;10.43;;
34832;SDS011;55941;50.800;4.342;2023-06-22T05:34:57;17.25;;;10.98;;
34832;SDS011;55941;50.800;4.342;2023-06-22T05:37:23;15.75;;;11.18;;
34832;SDS011;55941;50.800;4.342;2023-06-22T05:39:49;19.30;;;11.20;;
34832;SDS011;55941;50.800;4.342;2023-06-22T05:42:14;18.55;;;12.32;;
34832;SDS011;55941;50.800;4.342;2023-06-22T05:44:40;19.73;;;11.55;;
34832;SDS011;55941;50.800;4.342;2023-06-22T05:47:06;18.27;;;12.57;;
34832;SDS011;55941;50.800;4.342;2023-06-22T05:49:31;19.58;;;12.10;;
34832;SDS011;55941;50.800;4.342;2023-06-22T05:51:58;18.48;;;11.02;;
34832;SDS011;55941;50.800;4.342;2023-06-22T05:54:25;19.83;;;12.60;;
34832;SDS011;55941;50.800;4.342;2023-06-22T05:56:53;16.75;;;11.73;;
34832;SDS011;55941;50.800;4.342;2023-06-22T05:59:19;20.27;;;12.82;;
34832;SDS011;55941;50.800;4.342;2023-06-22T06:01:45;21.15;;;12.35;;
34832;SDS011;55941;50.800;4.342;2023-06-22T06:04:15;17.70;;;12.13;;
34832;SDS011;55941;50.800;4.342;2023-06-22T06:06:43;26.60;;;11.85;;
34832;SDS011;55941;50.800;4.342;2023-06-22T06:09:09;16.73;;;11.55;;
34832;SDS011;55941;50.800;4.342;2023-06-22T06:11:36;25.85;;;13.35;;
34832;SDS011;55941;50.800;4.342;2023-06-22T06:14:02;29.45;;;14.80;;
34832;SDS011;55941;50.800;4.342;2023-06-22T06:16:28;21.42;;;13.63;;
34832;SDS011;55941;50.800;4.342;2023-06-22T06:18:54;23.35;;;13.75;;
34832;SDS011;55941;50.800;4.342;2023-06-22T06:21:20;23.10;;;13.50;;
34832;SDS011;55941;50.800;4.342;2023-06-22T06:23:46;16.98;;;12.48;;
34832;SDS011;55941;50.800;4.342;2023-06-22T06:26:12;23.58;;;13.48;;
34832;SDS011;55941;50.800;4.342;2023-06-22T06:28:40;25.90;;;13.88;;
34832;SDS011;55941;50.800;4.342;2023-06-22T06:31:06;31.88;;;13.77;;
34832;SDS011;55941;50.800;4.342;2023-06-22T06:33:32;23.35;;;13.82;;
34832;SDS011;55941;50.800;4.342;2023-06-22T06:35:58;24.17;;;14.27;;
34832;SDS011;55941;50.800;4.342;2023-06-22T06:38:26;25.95;;;14.23;;
34832;SDS011;55941;50.800;4.342;2023-06-22T06:40:53;23.95;;;14.30;;
34832;SDS011;55941;50.800;4.342;2023-06-22T06:43:19;24.98;;;14.70;;
34832;SDS011;55941;50.800;4.342;2023-06-22T06:45:44;21.70;;;13.77;;
34832;SDS011;55941;50.800;4.342;2023-06-22T06:48:10;27.48;;;14.40;;
34832;SDS011;55941;50.800;4.342;2023-06-22T06:50:36;26.50;;;14.18;;
34832;SDS011;55941;50.800;4.342;2023-06-22T06:53:01;26.20;;;15.00;;
34832;SDS011;55941;50.800;4.342;2023-06-22T06:55:27;33.25;;;14.80;;
34832;SDS011;55941;50.800;4.342;2023-06-22T06:57:53;23.65;;;13.52;;
34832;SDS011;55941;50.800;4.342;2023-06-22T07:00:20;28.65;;;14.75;;
34832;SDS011;55941;50.800;4.342;2023-06-22T07:02:46;22.50;;;13.43;;
34832;SDS011;55941;50.800;4.342;2023-06-22T07:05:13;25.50;;;13.27;;
34832;SDS011;55941;50.800;4.342;2023-06-22T07:07:39;26.38;;;14.02;;
34832;SDS011;55941;50.800;4.342;2023-06-22T07:10:07;28.45;;;14.07;;
34832;SDS011;55941;50.800;4.342;2023-06-22T07:12:33;31.55;;;14.50;;
34832;SDS011;55941;50.800;4.342;2023-06-22T07:15:03;26.45;;;13.50;;
34832;SDS011;55941;50.800;4.342;2023-06-22T07:17:30;21.75;;;13.80;;
34832;SDS011;55941;50.800;4.342;2023-06-22T07:19:57;24.85;;;13.07;;
34832;SDS011;55941;50.800;4.342;2023-06-22T07:22:22;32.28;;;13.52;;
34832;SDS011;55941;50.800;4.342;2023-06-22T07:24:48;27.02;;;13.48;;
34832;SDS011;55941;50.800;4.342;2023-06-22T07:27:14;23.90;;;13.43;;
34832;SDS011;55941;50.800;4.342;2023-06-22T07:29:43;30.17;;;13.05;;
34832;SDS011;55941;50.800;4.342;2023-06-22T07:32:10;22.50;;;13.40;;
34832;SDS011;55941;50.800;4.342;2023-06-22T07:34:36;26.40;;;14.38;;
34832;SDS011;55941;50.800;4.342;2023-06-22T07:37:02;24.40;;;13.70;;
34832;SDS011;55941;50.800;4.342;2023-06-22T07:39:29;30.48;;;13.40;;
34832;SDS011;55941;50.800;4.342;2023-06-22T07:41:55;29.45;;;13.07;;
34832;SDS011;55941;50.800;4.342;2023-06-22T07:44:21;21.67;;;11.45;;
34832;SDS011;55941;50.800;4.342;2023-06-22T07:46:46;17.65;;;10.98;;
34832;SDS011;55941;50.800;4.342;2023-06-22T07:49:12;15.95;;;11.00;;
34832;SDS011;55941;50.800;4.342;2023-06-22T07:51:38;17.40;;;10.43;;
34832;SDS011;55941;50.800;4.342;2023-06-22T07:54:03;16.10;;;10.65;;
34832;SDS011;55941;50.800;4.342;2023-06-22T07:56:29;19.25;;;11.30;;
34832;SDS011;55941;50.800;4.342;2023-06-22T07:58:55;20.02;;;11.18;;
34832;SDS011;55941;50.800;4.342;2023-06-22T08:01:23;14.25;;;10.82;;
34832;SDS011;55941;50.800;4.342;2023-06-22T08:03:49;20.15;;;11.07;;
34832;SDS011;55941;50.800;4.342;2023-06-22T08:06:15;19.42;;;10.90;;
34832;SDS011;55941;50.800;4.342;2023-06-22T08:08:41;25.50;;;10.90;;
34832;SDS011;55941;50.800;4.342;2023-06-22T08:11:07;22.05;;;10.90;;
34832;SDS011;55941;50.800;4.342;2023-06-22T08:13:33;22.80;;;10.90;;
34832;SDS011;55941;50.800;4.342;2023-06-22T08:15:59;19.48;;;9.88;;
34832;SDS011;55941;50.800;4.342;2023-06-22T08:18:25;19.00;;;10.50;;
34832;SDS011;55941;50.800;4.342;2023-06-22T08:20:51;23.77;;;10.13;;
34832;SDS011;55941;50.800;4.342;2023-06-22T08:23:17;16.85;;;10.45;;
34832;SDS011;55941;50.800;4.342;2023-06-22T08:25:42;19.08;;;10.50;;
34832;SDS011;55941;50.800;4.342;2023-06-22T08:28:09;20.52;;;11.05;;
34832;SDS011;55941;50.800;4.342;2023-06-22T08:30:35;15.43;;;9.88;;
34832;SDS011;55941;50.800;4.342;2023-06-22T08:33:00;30.67;;;11.05;;
34832;SDS011;55941;50.800;4.342;2023-06-22T08:35:26;28.30;;;11.30;;
34832;SDS011;55941;50.800;4.342;2023-06-22T08:37:53;25.13;;;11.00;;
34832;SDS011;55941;50.800;4.342;2023-06-22T08:40:19;22.02;;;10.57;;
34832;SDS011;55941;50.800;4.342;2023-06-22T08:42:45;27.60;;;11.88;;
34832;SDS011;55941;50.800;4.342;2023-06-22T08:45:13;17.70;;;10.98;;
34832;SDS011;55941;50.800;4.342;2023-06-22T08:47:39;15.65;;;10.43;;
34832;SDS011;55941;50.800;4.342;2023-06-22T08:50:06;19.15;;;11.13;;
34832;SDS011;55941;50.800;4.342;2023-06-22T08:52:35;20.33;;;10.70;;
34832;SDS011;55941;50.800;4.342;2023-06-22T08:55:01;21.27;;;10.60;;
34832;SDS011;55941;50.800;4.342;2023-06-22T08:57:27;23.67;;;11.07;;
34832;SDS011;55941;50.800;4.342;2023-06-22T08:59:54;16.48;;;11.18;;
34832;SDS011;55941;50.800;4.342;2023-06-22T09:02:23;20.40;;;11.40;;
34832;SDS011;55941;50.800;4.342;2023-06-22T09:04:49;17.50;;;11.15;;
34832;SDS011;55941;50.800;4.342;2023-06-22T09:07:20;20.88;;;11.50;;
34832;SDS011;55941;50.800;4.342;2023-06-22T09:09:48;19.83;;;11.18;;
34832;SDS011;55941;50.800;4.342;2023-06-22T09:12:15;23.27;;;11.07;;
34832;SDS011;55941;50.800;4.342;2023-06-22T09:14:40;19.30;;;10.52;;
34832;SDS011;55941;50.800;4.342;2023-06-22T09:17:06;22.33;;;10.82;;
34832;SDS011;55941;50.800;4.342;2023-06-22T09:19:32;24.10;;;10.52;;
34832;SDS011;55941;50.800;4.342;2023-06-22T09:21:58;20.17;;;11.10;;
34832;SDS011;55941;50.800;4.342;2023-06-22T09:24:25;18.17;;;10.73;;
34832;SDS011;55941;50.800;4.342;2023-06-22T09:26:51;25.40;;;10.68;;
34832;SDS011;55941;50.800;4.342;2023-06-22T09:29:17;22.15;;;10.93;;
34832;SDS011;55941;50.800;4.342;2023-06-22T09:31:43;30.45;;;10.65;;
34832;SDS011;55941;50.800;4.342;2023-06-22T09:34:09;15.63;;;10.52;;
34832;SDS011;55941;50.800;4.342;2023-06-22T09:36:34;21.55;;;9.95;;
34832;SDS011;55941;50.800;4.342;2023-06-22T09:39:02;20.63;;;9.88;;
34832;SDS011;55941;50.800;4.342;2023-06-22T09:41:31;20.07;;;10.47;;
34832;SDS011;55941;50.800;4.342;2023-06-22T09:43:57;18.33;;;10.85;;
34832;SDS011;55941;50.800;4.342;2023-06-22T09:46:22;16.35;;;10.35;;
34832;SDS011;55941;50.800;4.342;2023-06-22T09:48:50;29.48;;;11.43;;
34832;SDS011;55941;50.800;4.342;2023-06-22T09:51:16;25.65;;;10.73;;
34832;SDS011;55941;50.800;4.342;2023-06-22T09:53:41;21.60;;;10.38;;
34832;SDS011;55941;50.800;4.342;2023-06-22T09:56:07;25.90;;;12.68;;
34832;SDS011;55941;50.800;4.342;2023-06-22T09:58:39;25.13;;;12.57;;
34832;SDS011;55941;50.800;4.342;2023-06-22T10:01:07;24.75;;;12.05;;
34832;SDS011;55941;50.800;4.342;2023-06-22T10:03:33;22.60;;;12.57;;
34832;SDS011;55941;50.800;4.342;2023-06-22T10:06:01;26.38;;;14.20;;
34832;SDS011;55941;50.800;4.342;2023-06-22T10:08:27;23.23;;;14.90;;
34832;SDS011;55941;50.800;4.342;2023-06-22T10:10:53;25.85;;;15.38;;
34832;SDS011;55941;50.800;4.342;2023-06-22T10:13:18;21.70;;;13.07;;
34832;SDS011;55941;50.800;4.342;2023-06-22T10:15:44;28.45;;;14.98;;
34832;SDS011;55941;50.800;4.342;2023-06-22T10:20:45;27.88;;;15.20;;
34832;SDS011;55941;50.800;4.342;2023-06-22T10:23:17;27.13;;;15.18;;
34832;SDS011;55941;50.800;4.342;2023-06-22T10:25:46;26.10;;;16.70;;
34832;SDS011;55941;50.800;4.342;2023-06-22T10:28:12;24.88;;;17.10;;
34832;SDS011;55941;50.800;4.342;2023-06-22T10:30:39;24.75;;;16.58;;
34832;SDS011;55941;50.800;4.342;2023-06-22T10:33:09;40.47;;;20.10;;
34832;SDS011;55941;50.800;4.342;2023-06-22T10:35:36;27.95;;;16.20;;
34832;SDS011;55941;50.800;4.342;2023-06-22T10:38:03;24.88;;;17.20;;
34832;SDS011;55941;50.800;4.342;2023-06-22T10:40:29;21.80;;;15.02;;
34832;SDS011;55941;50.800;4.342;2023-06-22T10:42:55;23.45;;;15.63;;
34832;SDS011;55941;50.800;4.342;2023-06-22T10:45:22;23.85;;;15.15;;
34832;SDS011;55941;50.800;4.342;2023-06-22T10:47:47;21.08;;;14.68;;
34832;SDS011;55941;50.800;4.342;2023-06-22T10:50:14;21.63;;;16.10;;
34832;SDS011;55941;50.800;4.342;2023-06-22T10:52:40;28.70;;;17.70;;
34832;SDS011;55941;50.800;4.342;2023-06-22T10:55:08;24.02;;;15.68;;
34832;SDS011;55941;50.800;4.342;2023-06-22T10:57:36;25.38;;;17.38;;
34832;SDS011;55941;50.800;4.342;2023-06-22T11:00:02;22.50;;;16.75;;
34832;SDS011;55941;50.800;4.342;2023-06-22T11:02:31;28.02;;;17.23;;
34832;SDS011;55941;50.800;4.342;2023-06-22T11:04:57;27.13;;;18.00;;
34832;SDS011;55941;50.800;4.342;2023-06-22T11:07:25;27.70;;;18.10;;
34832;SDS011;55941;50.800;4.342;2023-06-22T11:09:52;28.00;;;19.17;;
34832;SDS011;55941;50.800;4.342;2023-06-22T11:12:18;28.65;;;19.58;;
34832;SDS011;55941;50.800;4.342;2023-06-22T11:14:43;27.23;;;19.67;;
34832;SDS011;55941;50.800;4.342;2023-06-22T11:17:09;31.27;;;19.73;;
34832;SDS011;55941;50.800;4.342;2023-06-22T11:19:35;34.83;;;21.00;;
34832;SDS011;55941;50.800;4.342;2023-06-22T11:22:01;28.10;;;19.77;;
34832;SDS011;55941;50.800;4.342;2023-06-22T11:24:27;29.52;;;19.90;;
34832;SDS011;55941;50.800;4.342;2023-06-22T11:26:53;28.42;;;20.25;;
34832;SDS011;55941;50.800;4.342;2023-06-22T11:29:18;28.48;;;19.42;;
34832;SDS011;55941;50.800;4.342;2023-06-22T11:31:44;30.42;;;20.58;;
34832;SDS011;55941;50.800;4.342;2023-06-22T11:34:10;31.25;;;21.55;;
34832;SDS011;55941;50.800;4.342;2023-06-22T11:36:36;35.10;;;21.88;;
34832;SDS011;55941;50.800;4.342;2023-06-22T11:39:01;34.75;;;22.13;;
34832;SDS011;55941;50.800;4.342;2023-06-22T11:41:27;30.83;;;23.08;;
34832;SDS011;55941;50.800;4.342;2023-06-22T11:43:54;28.10;;;21.17;;
34832;SDS011;55941;50.800;4.342;2023-06-22T11:46:20;30.17;;;21.75;;
34832;SDS011;55941;50.800;4.342;2023-06-22T11:48:45;31.23;;;21.35;;
34832;SDS011;55941;50.800;4.342;2023-06-22T11:51:11;31.73;;;22.20;;
34832;SDS011;55941;50.800;4.342;2023-06-22T11:53:37;29.63;;;19.35;;
34832;SDS011;55941;50.800;4.342;2023-06-22T11:56:02;31.55;;;18.83;;
34832;SDS011;55941;50.800;4.342;2023-06-22T11:58:28;25.02;;;17.45;;
34832;SDS011;55941;50.800;4.342;2023-06-22T12:00:54;29.40;;;18.55;;
34832;SDS011;55941;50.800;4.342;2023-06-22T12:03:20;32.10;;;18.20;;
34832;SDS011;55941;50.800;4.342;2023-06-22T12:05:50;24.52;;;17.85;;
34832;SDS011;55941;50.800;4.342;2023-06-22T12:08:19;32.85;;;18.15;;
34832;SDS011;55941;50.800;4.342;2023-06-22T12:10:45;28.17;;;18.95;;
34832;SDS011;55941;50.800;4.342;2023-06-22T12:13:10;23.75;;;18.77;;
34832;SDS011;55941;50.800;4.342;2023-06-22T12:15:36;34.42;;;19.05;;
34832;SDS011;55941;50.800;4.342;2023-06-22T12:18:05;30.10;;;19.95;;
34832;SDS011;55941;50.800;4.342;2023-06-22T12:20:30;26.52;;;18.67;;
34832;SDS011;55941;50.800;4.342;2023-06-22T12:22:57;28.25;;;20.08;;
34832;SDS011;55941;50.800;4.342;2023-06-22T12:25:23;27.08;;;19.42;;
34832;SDS011;55941;50.800;4.342;2023-06-22T12:27:49;28.00;;;19.95;;
34832;SDS011;55941;50.800;4.342;2023-06-22T12:30:15;27.08;;;20.75;;
34832;SDS011;55941;50.800;4.342;2023-06-22T12:32:41;30.90;;;20.92;;
34832;SDS011;55941;50.800;4.342;2023-06-22T12:35:07;34.22;;;21.75;;
34832;SDS011;55941;50.800;4.342;2023-06-22T12:37:38;29.92;;;22.08;;
34832;SDS011;55941;50.800;4.342;2023-06-22T12:40:07;39.47;;;22.80;;
34832;SDS011;55941;50.800;4.342;2023-06-22T12:42:34;30.40;;;21.55;;
34832;SDS011;55941;50.800;4.342;2023-06-22T12:45:00;34.50;;;22.38;;
34832;SDS011;55941;50.800;4.342;2023-06-22T12:47:27;35.53;;;22.35;;
34832;SDS011;55941;50.800;4.342;2023-06-22T12:49:53;31.60;;;22.20;;
34832;SDS011;55941;50.800;4.342;2023-06-22T12:52:18;33.15;;;22.73;;
34832;SDS011;55941;50.800;4.342;2023-06-22T12:54:44;37.00;;;23.92;;
34832;SDS011;55941;50.800;4.342;2023-06-22T12:57:10;34.00;;;23.80;;
34832;SDS011;55941;50.800;4.342;2023-06-22T12:59:35;40.00;;;24.83;;
34832;SDS011;55941;50.800;4.342;2023-06-22T13:02:01;35.38;;;24.67;;
34832;SDS011;55941;50.800;4.342;2023-06-22T13:04:28;36.28;;;26.95;;
34832;SDS011;55941;50.800;4.342;2023-06-22T13:06:53;41.42;;;25.75;;
34832;SDS011;55941;50.800;4.342;2023-06-22T13:09:21;42.30;;;28.50;;
34832;SDS011;55941;50.800;4.342;2023-06-22T13:11:47;45.25;;;29.00;;
34832;SDS011;55941;50.800;4.342;2023-06-22T13:14:13;43.47;;;29.38;;
34832;SDS011;55941;50.800;4.342;2023-06-22T13:16:38;42.72;;;28.33;;
34832;SDS011;55941;50.800;4.342;2023-06-22T13:19:04;42.75;;;29.42;;
34832;SDS011;55941;50.800;4.342;2023-06-22T13:21:30;39.78;;;28.80;;
34832;SDS011;55941;50.800;4.342;2023-06-22T13:23:58;44.35;;;29.85;;
34832;SDS011;55941;50.800;4.342;2023-06-22T13:26:24;57.10;;;31.55;;
34832;SDS011;55941;50.800;4.342;2023-06-22T13:28:49;55.13;;;31.98;;
34832;SDS011;55941;50.800;4.342;2023-06-22T13:31:15;48.75;;;31.90;;
34832;SDS011;55941;50.800;4.342;2023-06-22T13:33:41;50.92;;;32.10;;
34832;SDS011;55941;50.800;4.342;2023-06-22T13:36:07;43.25;;;30.98;;
34832;SDS011;55941;50.800;4.342;2023-06-22T13:38:34;45.03;;;30.27;;
34832;SDS011;55941;50.800;4.342;2023-06-22T13:41:06;46.83;;;30.38;;
34832;SDS011;55941;50.800;4.342;2023-06-22T13:43:32;37.63;;;28.63;;
34832;SDS011;55941;50.800;4.342;2023-06-22T13:46:00;45.22;;;29.67;;
34832;SDS011;55941;50.800;4.342;2023-06-22T13:48:25;40.42;;;28.48;;
34832;SDS011;55941;50.800;4.342;2023-06-22T13:50:53;44.72;;;30.20;;
34832;SDS011;55941;50.800;4.342;2023-06-22T13:53:20;38.78;;;27.95;;
34832;SDS011;55941;50.800;4.342;2023-06-22T13:55:45;40.75;;;28.48;;
34832;SDS011;55941;50.800;4.342;2023-06-22T13:58:12;39.90;;;27.27;;
34832;SDS011;55941;50.800;4.342;2023-06-22T14:00:38;38.53;;;26.23;;
34832;SDS011;55941;50.800;4.342;2023-06-22T14:03:04;34.45;;;25.15;;
34832;SDS011;55941;50.800;4.342;2023-06-22T14:05:30;42.45;;;25.20;;
34832;SDS011;55941;50.800;4.342;2023-06-22T14:07:57;37.58;;;25.88;;
34832;SDS011;55941;50.800;4.342;2023-06-22T14:10:23;33.97;;;24.80;;
34832;SDS011;55941;50.800;4.342;2023-06-22T14:12:48;33.75;;;24.15;;
34832;SDS011;55941;50.800;4.342;2023-06-22T14:15:14;32.00;;;25.13;;
34832;SDS011;55941;50.800;4.342;2023-06-22T14:17:40;30.95;;;23.40;;
34832;SDS011;55941;50.800;4.342;2023-06-22T14:20:05;35.28;;;25.10;;
34832;SDS011;55941;50.800;4.342;2023-06-22T14:22:33;31.20;;;23.13;;
34832;SDS011;55941;50.800;4.342;2023-06-22T14:25:00;30.67;;;22.85;;
34832;SDS011;55941;50.800;4.342;2023-06-22T14:27:26;30.77;;;24.00;;
34832;SDS011;55941;50.800;4.342;2023-06-22T14:29:53;34.80;;;24.73;;
34832;SDS011;55941;50.800;4.342;2023-06-22T14:32:21;33.97;;;24.92;;
34832;SDS011;55941;50.800;4.342;2023-06-22T14:34:46;31.95;;;23.88;;
34832;SDS011;55941;50.800;4.342;2023-06-22T14:37:12;36.80;;;23.92;;